Time;durP1;ratioP1;P1;durP2;ratioP2;P2;SDS_P1;SDS_P2;PMS_P1;PMS_P2;Temp;Humidity;BMP_temperature;BMP_pressure;BME280_temperature;BME280_humidity;BME280_pressure;Samples;Min_cycle;Max_cycle;Signal;HPM_P1;HPM_P2
2021/10/01 00:02:24;;;;;;;7.48;3.38;;;;;;;;;;4994897;28;20484;-69
2021/10/01 00:04:49;;;;;;;7.25;2.85;;;;;;;;;;5007286;28;20053;-69
2021/10/01 00:07:14;;;;;;;5.30;3.33;;;;;;;;;;5000078;28;20029;-70
2021/10/01 00:09:40;;;;;;;6.97;3.50;;;;;;;;;;5003848;28;20018;-68
2021/10/01 00:12:06;;;;;;;7.53;3.47;;;;;;;;;;5001448;28;20022;-69
2021/10/01 00:14:32;;;;;;;5.90;3.13;;;;;;;;;;4997824;28;20382;-69
2021/10/01 00:16:57;;;;;;;6.70;3.38;;;;;;;;;;5003693;28;20018;-69
2021/10/01 00:19:22;;;;;;;5.93;3.30;;;;;;;;;;5005238;28;20026;-70
2021/10/01 00:21:48;;;;;;;6.18;3.28;;;;;;;;;;5004782;28;20037;-69
2021/10/01 00:24:13;;;;;;;5.32;3.78;;;;;;;;;;5005430;28;20034;-69
2021/10/01 00:26:40;;;;;;;7.05;3.92;;;;;;;;;;4997311;28;20028;-70
2021/10/01 00:29:05;;;;;;;6.32;3.53;;;;;;;;;;4995024;28;20077;-68
2021/10/01 00:31:31;;;;;;;5.32;3.40;;;;;;;;;;5002412;28;20014;-69
2021/10/01 00:33:56;;;;;;;8.13;3.40;;;;;;;;;;4990200;28;20018;-69
2021/10/01 00:36:21;;;;;;;5.28;3.08;;;;;;;;;;5001087;28;20022;-69
2021/10/01 00:38:46;;;;;;;6.07;3.15;;;;;;;;;;4989536;28;20034;-70
2021/10/01 00:41:12;;;;;;;6.88;3.10;;;;;;;;;;5000742;28;20056;-68
2021/10/01 00:43:37;;;;;;;8.23;3.28;;;;;;;;;;4998306;28;20069;-68
2021/10/01 00:46:02;;;;;;;5.50;3.15;;;;;;;;;;4996049;28;20014;-69
2021/10/01 00:48:27;;;;;;;6.88;3.38;;;;;;;;;;4990944;28;20058;-69
2021/10/01 00:50:52;;;;;;;5.93;3.50;;;;;;;;;;5002283;28;20014;-69
2021/10/01 00:53:17;;;;;;;5.60;3.13;;;;;;;;;;4996820;28;20038;-69
2021/10/01 00:55:43;;;;;;;5.35;2.92;;;;;;;;;;4998532;28;20304;-70
2021/10/01 00:58:09;;;;;;;4.95;3.05;;;;;;;;;;4994031;28;20141;-69
2021/10/01 01:00:37;;;;;;;4.85;2.78;;;;;;;;;;5003052;28;20427;-69
2021/10/01 01:03:03;;;;;;;4.38;2.95;;;;;;;;;;5009780;28;20034;-70
2021/10/01 01:05:45;;;;;;;4.97;2.92;;;;;;;;;;5006966;28;20567;-70
2021/10/01 01:08:10;;;;;;;5.20;3.00;;;;;;;;;;4999770;28;20451;-70
2021/10/01 01:10:45;;;;;;;6.13;3.10;;;;;;;;;;4999864;28;20105;-69
2021/10/01 01:13:23;;;;;;;5.45;3.20;;;;;;;;;;4998346;28;20501;-69
2021/10/01 01:15:52;;;;;;;6.93;3.22;;;;;;;;;;5001548;28;20072;-71
2021/10/01 01:18:23;;;;;;;4.35;2.95;;;;;;;;;;4999526;28;20037;-70
2021/10/01 01:20:52;;;;;;;6.13;3.20;;;;;;;;;;4995440;28;20034;-70
2021/10/01 01:23:36;;;;;;;5.85;3.13;;;;;;;;;;5005274;28;20034;-70
2021/10/01 01:26:02;;;;;;;4.57;2.72;;;;;;;;;;5001128;28;20022;-70
2021/10/01 01:28:36;;;;;;;4.32;2.80;;;;;;;;;;4994145;28;20026;-68
2021/10/01 01:31:07;;;;;;;5.63;3.17;;;;;;;;;;5000994;28;20025;-69
2021/10/01 01:33:34;;;;;;;6.43;2.55;;;;;;;;;;5004034;28;20034;-70
2021/10/01 01:35:59;;;;;;;4.40;2.40;;;;;;;;;;4997114;28;20029;-69
2021/10/01 01:38:28;;;;;;;4.00;2.20;;;;;;;;;;4997012;28;20030;-69
2021/10/01 01:40:55;;;;;;;6.30;2.38;;;;;;;;;;5006028;28;20026;-69
2021/10/01 01:43:21;;;;;;;5.43;2.90;;;;;;;;;;4999091;28;20046;-70
2021/10/01 01:45:46;;;;;;;4.35;2.60;;;;;;;;;;5007773;28;20037;-69
2021/10/01 01:48:12;;;;;;;4.90;3.03;;;;;;;;;;5002513;28;20028;-69
2021/10/01 01:50:37;;;;;;;4.43;2.88;;;;;;;;;;4992774;28;20175;-68
2021/10/01 01:53:03;;;;;;;4.82;2.97;;;;;;;;;;5001590;28;20080;-69
2021/10/01 01:55:29;;;;;;;3.75;2.80;;;;;;;;;;4998768;28;20057;-68
2021/10/01 01:57:54;;;;;;;5.00;3.00;;;;;;;;;;4998982;28;20042;-69
2021/10/01 02:00:20;;;;;;;5.50;2.55;;;;;;;;;;5004351;28;20019;-69
2021/10/01 02:02:47;;;;;;;4.65;2.92;;;;;;;;;;4996373;28;20030;-68
2021/10/01 02:05:12;;;;;;;4.35;2.83;;;;;;;;;;4998113;28;20104;-69
2021/10/01 02:07:39;;;;;;;4.82;2.50;;;;;;;;;;5004468;28;20030;-68
2021/10/01 02:10:05;;;;;;;5.70;2.50;;;;;;;;;;4998417;28;20026;-68
2021/10/01 02:12:30;;;;;;;3.40;2.35;;;;;;;;;;5007932;28;20029;-69
2021/10/01 02:14:57;;;;;;;4.07;2.80;;;;;;;;;;4995342;28;20503;-70
2021/10/01 02:17:23;;;;;;;3.83;2.70;;;;;;;;;;5004325;28;20028;-69
2021/10/01 02:19:49;;;;;;;5.07;2.78;;;;;;;;;;4998574;28;20118;-70
2021/10/01 02:22:16;;;;;;;5.78;2.97;;;;;;;;;;4997887;28;20566;-69
2021/10/01 02:24:42;;;;;;;6.50;2.90;;;;;;;;;;5004898;28;20022;-69
2021/10/01 02:27:10;;;;;;;3.55;2.50;;;;;;;;;;5003233;28;20351;-69
2021/10/01 02:29:39;;;;;;;3.50;2.47;;;;;;;;;;5003008;28;20498;-68
2021/10/01 02:32:08;;;;;;;4.38;2.72;;;;;;;;;;4994385;28;20247;-68
2021/10/01 02:34:38;;;;;;;4.22;2.50;;;;;;;;;;5001018;28;20488;-69
2021/10/01 02:37:05;;;;;;;3.58;2.75;;;;;;;;;;5006489;28;20026;-69
2021/10/01 02:39:31;;;;;;;6.25;3.10;;;;;;;;;;4994890;28;20036;-69
2021/10/01 02:41:56;;;;;;;4.78;2.70;;;;;;;;;;4997494;28;20022;-68
2021/10/01 02:44:22;;;;;;;4.63;2.80;;;;;;;;;;5004372;28;20037;-69
2021/10/01 02:46:47;;;;;;;3.75;2.42;;;;;;;;;;5005858;28;20014;-69
2021/10/01 02:49:12;;;;;;;5.30;2.70;;;;;;;;;;4995650;28;20109;-68
2021/10/01 02:51:40;;;;;;;4.38;2.42;;;;;;;;;;4996613;28;20022;-69
2021/10/01 02:54:07;;;;;;;4.80;2.55;;;;;;;;;;4990865;28;20496;-69
2021/10/01 02:56:37;;;;;;;4.47;2.60;;;;;;;;;;4995524;28;20015;-69
2021/10/01 02:59:03;;;;;;;5.10;2.70;;;;;;;;;;5002251;28;20129;-69
2021/10/01 03:01:29;;;;;;;4.95;2.53;;;;;;;;;;5002590;28;20041;-68
2021/10/01 03:03:57;;;;;;;5.82;2.63;;;;;;;;;;4992910;28;20030;-70
2021/10/01 03:06:23;;;;;;;4.13;2.42;;;;;;;;;;4998630;28;20026;-68
2021/10/01 03:08:50;;;;;;;6.60;2.30;;;;;;;;;;5002116;28;20087;-69
2021/10/01 03:11:17;;;;;;;4.15;2.40;;;;;;;;;;5007354;28;20043;-69
2021/10/01 03:13:44;;;;;;;4.55;2.35;;;;;;;;;;4997426;28;20127;-68
2021/10/01 03:16:10;;;;;;;3.80;2.30;;;;;;;;;;4993122;28;20018;-69
2021/10/01 03:18:36;;;;;;;3.05;2.22;;;;;;;;;;5000325;28;20068;-69
2021/10/01 03:21:02;;;;;;;4.82;2.50;;;;;;;;;;4999186;28;20104;-69
2021/10/01 03:23:27;;;;;;;4.63;2.50;;;;;;;;;;4999735;28;20137;-70
2021/10/01 03:25:53;;;;;;;5.50;2.60;;;;;;;;;;4997337;28;20588;-70
2021/10/01 03:28:18;;;;;;;5.45;3.20;;;;;;;;;;4996428;28;20469;-68
2021/10/01 03:30:46;;;;;;;4.57;2.65;;;;;;;;;;5002824;28;20474;-68
2021/10/01 03:33:12;;;;;;;4.38;2.80;;;;;;;;;;4990598;28;20029;-69
2021/10/01 03:35:40;;;;;;;3.90;2.45;;;;;;;;;;4990836;28;20101;-69
2021/10/01 03:38:05;;;;;;;4.82;2.60;;;;;;;;;;4993993;28;20512;-69
2021/10/01 03:40:31;;;;;;;4.28;2.72;;;;;;;;;;4997841;28;20053;-69
2021/10/01 03:42:56;;;;;;;5.43;2.60;;;;;;;;;;5000848;28;20797;-69
2021/10/01 03:45:22;;;;;;;7.60;2.50;;;;;;;;;;5002651;28;20637;-69
2021/10/01 03:47:47;;;;;;;4.05;2.15;;;;;;;;;;4991048;28;20466;-69
2021/10/01 03:50:12;;;;;;;4.07;2.58;;;;;;;;;;4993814;28;20786;-68
2021/10/01 03:52:37;;;;;;;4.20;2.30;;;;;;;;;;4997496;28;20061;-70
2021/10/01 03:55:04;;;;;;;4.75;2.60;;;;;;;;;;4992416;28;20023;-68
2021/10/01 03:57:30;;;;;;;6.60;2.75;;;;;;;;;;5000555;28;20034;-69
2021/10/01 03:59:55;;;;;;;4.70;2.60;;;;;;;;;;4992827;28;20042;-69
2021/10/01 04:02:20;;;;;;;5.40;2.85;;;;;;;;;;5006593;28;20034;-69
2021/10/01 04:04:46;;;;;;;6.82;2.83;;;;;;;;;;4998230;28;20061;-69
2021/10/01 04:07:11;;;;;;;6.80;3.33;;;;;;;;;;4990791;28;20026;-68
2021/10/01 04:09:36;;;;;;;5.78;3.05;;;;;;;;;;4996160;28;20476;-68
2021/10/01 04:12:01;;;;;;;6.26;3.20;;;;;;;;;;5004813;28;20105;-69
2021/10/01 04:14:26;;;;;;;4.93;2.88;;;;;;;;;;5004049;28;20092;-69
2021/10/01 04:16:52;;;;;;;5.63;3.20;;;;;;;;;;4990500;28;20035;-68
2021/10/01 04:19:18;;;;;;;6.10;3.10;;;;;;;;;;5004031;28;20014;-68
2021/10/01 04:21:43;;;;;;;8.13;3.10;;;;;;;;;;4996611;28;20142;-68
2021/10/01 04:24:08;;;;;;;5.45;3.10;;;;;;;;;;5000678;28;20026;-69
2021/10/01 04:26:34;;;;;;;6.15;3.17;;;;;;;;;;4997921;28;20064;-68
2021/10/01 04:28:59;;;;;;;7.32;3.35;;;;;;;;;;5002958;28;20553;-68
2021/10/01 04:31:24;;;;;;;7.25;3.70;;;;;;;;;;5000477;28;20529;-69
2021/10/01 04:33:49;;;;;;;7.80;3.28;;;;;;;;;;4997214;28;20037;-69
2021/10/01 04:36:15;;;;;;;7.05;3.70;;;;;;;;;;5002057;28;20481;-69
2021/10/01 04:38:40;;;;;;;7.07;3.45;;;;;;;;;;5002329;28;20108;-69
2021/10/01 04:41:05;;;;;;;8.18;3.97;;;;;;;;;;4998729;28;20018;-69
2021/10/01 04:43:31;;;;;;;6.60;3.80;;;;;;;;;;4993534;28;20042;-69
2021/10/01 04:45:56;;;;;;;8.90;4.03;;;;;;;;;;5000441;28;20029;-68
2021/10/01 04:48:21;;;;;;;7.22;4.07;;;;;;;;;;4998716;28;20109;-69
2021/10/01 04:50:47;;;;;;;8.13;3.88;;;;;;;;;;5000371;28;20073;-69
2021/10/01 04:53:12;;;;;;;7.20;3.78;;;;;;;;;;4991354;28;20026;-70
2021/10/01 04:55:37;;;;;;;7.78;3.25;;;;;;;;;;5001218;28;20116;-70
2021/10/01 04:58:04;;;;;;;9.00;4.03;;;;;;;;;;4992573;28;20038;-60
2021/10/01 05:00:30;;;;;;;7.88;3.97;;;;;;;;;;4996277;28;20049;-60
2021/10/01 05:02:55;;;;;;;9.13;3.63;;;;;;;;;;4998954;28;20035;-59
2021/10/01 05:05:21;;;;;;;9.07;3.60;;;;;;;;;;5000670;28;20104;-60
2021/10/01 05:07:46;;;;;;;7.63;3.85;;;;;;;;;;4996746;28;20461;-61
2021/10/01 05:10:12;;;;;;;10.52;4.20;;;;;;;;;;4992786;28;20434;-60
2021/10/01 05:12:37;;;;;;;7.88;3.38;;;;;;;;;;5002061;28;20033;-60
2021/10/01 05:15:03;;;;;;;10.20;3.63;;;;;;;;;;4991741;28;20039;-60
2021/10/01 05:17:28;;;;;;;10.35;4.63;;;;;;;;;;4993741;28;20033;-60
2021/10/01 05:19:53;;;;;;;10.38;4.30;;;;;;;;;;4996532;28;20782;-59
2021/10/01 05:22:18;;;;;;;9.27;4.25;;;;;;;;;;4998907;28;20125;-59
2021/10/01 05:24:44;;;;;;;11.07;4.22;;;;;;;;;;5000708;28;20397;-63
2021/10/01 05:27:09;;;;;;;11.23;4.03;;;;;;;;;;4997637;28;20026;-59
2021/10/01 05:29:34;;;;;;;10.00;3.67;;;;;;;;;;4994100;28;20038;-61
2021/10/01 05:31:59;;;;;;;9.43;4.00;;;;;;;;;;4996717;28;20526;-61
2021/10/01 05:34:25;;;;;;;10.20;4.22;;;;;;;;;;4996744;28;20105;-61
2021/10/01 05:36:51;;;;;;;8.38;4.05;;;;;;;;;;4994394;28;20026;-59
2021/10/01 05:39:16;;;;;;;9.95;4.32;;;;;;;;;;5008052;28;21502;-60
2021/10/01 05:41:41;;;;;;;10.48;4.63;;;;;;;;;;4993660;28;20031;-59
2021/10/01 05:44:06;;;;;;;7.25;3.50;;;;;;;;;;4995427;28;20088;-60
2021/10/01 05:46:32;;;;;;;7.47;3.35;;;;;;;;;;5001667;28;20125;-60
2021/10/01 05:49:00;;;;;;;8.10;2.97;;;;;;;;;;5000992;28;20462;-59
2021/10/01 05:51:27;;;;;;;7.03;3.30;;;;;;;;;;4996414;28;20121;-60
2021/10/01 05:56:27;;;;;;;7.50;3.42;;;;;;;;;;4997179;28;20049;-60
2021/10/01 05:58:52;;;;;;;7.32;3.88;;;;;;;;;;4992364;28;20093;-60
2021/10/01 06:01:17;;;;;;;10.35;4.35;;;;;;;;;;4995965;28;20405;-61
2021/10/01 06:03:42;;;;;;;10.45;4.05;;;;;;;;;;5008642;28;20037;-61
2021/10/01 06:06:08;;;;;;;6.57;3.20;;;;;;;;;;5008245;28;20026;-60
2021/10/01 06:08:33;;;;;;;5.72;3.10;;;;;;;;;;4992573;28;20042;-60
2021/10/01 06:10:58;;;;;;;6.57;2.90;;;;;;;;;;4999757;28;20068;-60
2021/10/01 06:13:24;;;;;;;6.38;2.92;;;;;;;;;;4996749;28;20140;-60
2021/10/01 06:15:49;;;;;;;5.60;2.90;;;;;;;;;;4992196;28;20023;-60
2021/10/01 06:18:14;;;;;;;6.28;2.92;;;;;;;;;;4997376;28;20418;-60
2021/10/01 06:20:39;;;;;;;4.18;2.70;;;;;;;;;;4992315;28;20023;-60
2021/10/01 06:23:04;;;;;;;5.25;2.85;;;;;;;;;;4997933;28;20034;-59
2021/10/01 06:25:30;;;;;;;5.20;2.55;;;;;;;;;;4991998;28;20026;-59
2021/10/01 06:27:55;;;;;;;6.75;2.53;;;;;;;;;;4998149;28;20045;-59
2021/10/01 06:30:20;;;;;;;5.35;3.33;;;;;;;;;;4991870;28;20030;-60
2021/10/01 06:32:45;;;;;;;6.53;3.20;;;;;;;;;;4996236;28;20037;-61
2021/10/01 06:35:11;;;;;;;6.35;3.35;;;;;;;;;;4995633;28;20033;-60
2021/10/01 06:37:36;;;;;;;8.23;2.90;;;;;;;;;;4995717;28;20072;-60
2021/10/01 06:40:02;;;;;;;10.07;3.38;;;;;;;;;;5010832;28;20018;-60
2021/10/01 06:42:27;;;;;;;9.50;3.35;;;;;;;;;;4994800;28;20041;-61
2021/10/01 06:44:54;;;;;;;7.95;3.70;;;;;;;;;;5001233;28;20023;-59
2021/10/01 06:47:31;;;;;;;6.45;3.47;;;;;;;;;;4994105;28;20360;-59
2021/10/01 06:53:03;;;;;;;11.15;3.78;;;;;;;;;;5010578;28;20604;-58
2021/10/01 07:36:50;;;;;;;7.55;2.25;;;;;;;;;;4935389;29;20058;-60
2021/10/01 08:20:11;;;;;;;5.22;2.10;;;;;;;;;;4991397;28;20105;-60
2021/10/01 08:22:37;;;;;;;4.20;2.13;;;;;;;;;;4991163;28;20984;-61
2021/10/01 08:25:02;;;;;;;8.32;2.00;;;;;;;;;;4990481;28;20022;-60
2021/10/01 08:27:28;;;;;;;4.43;2.00;;;;;;;;;;4992914;28;20022;-60
2021/10/01 08:29:54;;;;;;;3.92;2.05;;;;;;;;;;4994562;28;20018;-61
2021/10/01 08:32:19;;;;;;;3.97;2.17;;;;;;;;;;4989863;28;20022;-60
2021/10/01 08:34:45;;;;;;;5.32;2.10;;;;;;;;;;4990218;28;20015;-59
2021/10/01 08:37:11;;;;;;;5.35;2.13;;;;;;;;;;4990225;28;20057;-59
2021/10/01 08:39:36;;;;;;;6.00;2.00;;;;;;;;;;4998666;28;20362;-61
2021/10/01 08:42:01;;;;;;;8.43;2.08;;;;;;;;;;4991172;28;20466;-60
2021/10/01 08:44:28;;;;;;;4.13;2.17;;;;;;;;;;4989707;28;20022;-60
2021/10/01 08:46:54;;;;;;;2.78;1.52;;;;;;;;;;4990342;28;20442;-60
2021/10/01 08:49:20;;;;;;;4.63;1.80;;;;;;;;;;4997253;28;20030;-59
2021/10/01 08:51:45;;;;;;;5.63;1.52;;;;;;;;;;4995162;28;20026;-61
2021/10/01 08:54:10;;;;;;;7.70;2.00;;;;;;;;;;4989439;28;20069;-59
2021/10/01 08:56:36;;;;;;;3.75;1.95;;;;;;;;;;4995125;28;20049;-61
2021/10/01 08:59:01;;;;;;;4.25;2.25;;;;;;;;;;5008349;28;20042;-59
2021/10/01 09:01:26;;;;;;;4.70;1.88;;;;;;;;;;5000307;28;20030;-60
2021/10/01 09:03:52;;;;;;;6.88;2.05;;;;;;;;;;4989592;28;20039;-58
2021/10/01 09:06:18;;;;;;;4.25;1.73;;;;;;;;;;4993008;28;20340;-60
2021/10/01 09:08:56;;;;;;;4.00;1.88;;;;;;;;;;4989875;28;20025;-59
2021/10/01 09:11:26;;;;;;;5.47;1.80;;;;;;;;;;5000289;28;20018;-60
2021/10/01 09:13:52;;;;;;;3.42;1.95;;;;;;;;;;4989616;28;20018;-60
2021/10/01 09:16:17;;;;;;;4.25;1.98;;;;;;;;;;4989439;28;20053;-60
2021/10/01 09:18:42;;;;;;;5.47;1.80;;;;;;;;;;4990731;28;20018;-61
2021/10/01 09:21:08;;;;;;;3.90;1.88;;;;;;;;;;4994318;28;20277;-60
2021/10/01 09:23:39;;;;;;;3.15;1.70;;;;;;;;;;4999074;28;20042;-61
2021/10/01 09:26:06;;;;;;;4.75;1.63;;;;;;;;;;4993818;28;20089;-59
2021/10/01 09:28:42;;;;;;;3.28;1.58;;;;;;;;;;4993279;28;20034;-60
2021/10/01 09:31:08;;;;;;;1.98;1.27;;;;;;;;;;4994331;28;20105;-60
2021/10/01 09:33:33;;;;;;;3.80;1.50;;;;;;;;;;5000053;28;20522;-60
2021/10/01 09:36:08;;;;;;;5.53;1.48;;;;;;;;;;4993362;28;20277;-60
2021/10/01 09:38:37;;;;;;;5.10;1.42;;;;;;;;;;4992887;28;20077;-61
2021/10/01 09:41:16;;;;;;;6.97;2.17;;;;;;;;;;4996440;28;20378;-59
2021/10/01 09:43:42;;;;;;;4.72;2.17;;;;;;;;;;5008088;28;20037;-60
2021/10/01 09:46:08;;;;;;;5.70;1.83;;;;;;;;;;4992884;28;20042;-60
2021/10/01 09:48:34;;;;;;;5.78;1.70;;;;;;;;;;4992989;28;20035;-60
2021/10/01 09:51:07;;;;;;;3.45;1.60;;;;;;;;;;4999436;28;20079;-60
2021/10/01 09:53:40;;;;;;;4.32;1.60;;;;;;;;;;4998740;28;20034;-59
2021/10/01 09:56:16;;;;;;;4.90;1.63;;;;;;;;;;4997932;28;20501;-60
2021/10/01 09:58:41;;;;;;;3.92;1.35;;;;;;;;;;4992593;28;20532;-62
2021/10/01 10:01:06;;;;;;;4.03;1.40;;;;;;;;;;4999415;28;20073;-60
2021/10/01 10:03:31;;;;;;;4.27;1.50;;;;;;;;;;4992201;28;20034;-60
2021/10/01 10:06:00;;;;;;;4.90;1.30;;;;;;;;;;4999771;28;20266;-60
2021/10/01 10:08:35;;;;;;;5.70;1.52;;;;;;;;;;4992472;28;20037;-60
2021/10/01 10:11:00;;;;;;;3.25;1.52;;;;;;;;;;4998966;28;20029;-59
2021/10/01 10:13:39;;;;;;;4.38;1.20;;;;;;;;;;4991986;28;20081;-60
2021/10/01 10:16:06;;;;;;;3.97;1.48;;;;;;;;;;4996107;28;20033;-61
2021/10/01 10:18:31;;;;;;;6.07;1.42;;;;;;;;;;5011221;28;20026;-59
2021/10/01 10:20:56;;;;;;;2.57;1.20;;;;;;;;;;5003498;28;20107;-60
2021/10/01 10:23:21;;;;;;;3.50;1.13;;;;;;;;;;4991874;28;20297;-59
2021/10/01 10:25:47;;;;;;;1.83;1.00;;;;;;;;;;4994560;28;20014;-59
2021/10/01 10:28:12;;;;;;;2.95;1.25;;;;;;;;;;4991749;28;20930;-59
2021/10/01 10:30:37;;;;;;;3.40;1.00;;;;;;;;;;4992154;28;20022;-60
2021/10/01 10:33:22;;;;;;;2.93;1.20;;;;;;;;;;4998856;28;20926;-60
2021/10/01 10:35:47;;;;;;;3.00;1.20;;;;;;;;;;5006433;28;20667;-60
2021/10/01 10:38:32;;;;;;;1.90;1.00;;;;;;;;;;4996663;28;20109;-60
2021/10/01 10:41:17;;;;;;;1.48;0.95;;;;;;;;;;4997216;28;20649;-59
2021/10/01 10:43:45;;;;;;;2.97;1.15;;;;;;;;;;4993045;28;20048;-59
2021/10/01 10:46:23;;;;;;;5.30;1.13;;;;;;;;;;4991714;28;20366;-60
2021/10/01 10:49:08;;;;;;;3.22;0.90;;;;;;;;;;4994946;28;20061;-60
2021/10/01 10:51:52;;;;;;;2.75;1.10;;;;;;;;;;4990846;28;20046;-59
2021/10/01 10:54:18;;;;;;;2.08;0.93;;;;;;;;;;4993731;28;20049;-59
2021/10/01 10:56:43;;;;;;;3.55;1.00;;;;;;;;;;4991104;28;20026;-59
2021/10/01 10:59:27;;;;;;;1.50;0.80;;;;;;;;;;4994605;28;20454;-60
2021/10/01 11:02:12;;;;;;;2.90;0.80;;;;;;;;;;5002072;28;20269;-59
2021/10/01 11:04:38;;;;;;;1.92;0.70;;;;;;;;;;5001942;28;20098;-59
2021/10/01 11:07:03;;;;;;;2.83;0.93;;;;;;;;;;4991509;28;20038;-58
2021/10/01 11:09:30;;;;;;;1.10;0.80;;;;;;;;;;4996615;28;20059;-59
2021/10/01 11:11:58;;;;;;;1.52;0.80;;;;;;;;;;4998783;28;20424;-59
2021/10/01 11:14:25;;;;;;;3.38;1.20;;;;;;;;;;4991429;28;20465;-59
2021/10/01 11:16:53;;;;;;;0.95;0.60;;;;;;;;;;4990959;28;20478;-59
2021/10/01 11:19:45;;;;;;;1.92;0.90;;;;;;;;;;4996493;28;20093;-60
2021/10/01 11:22:29;;;;;;;1.13;0.60;;;;;;;;;;4997464;28;20034;-60
2021/10/01 11:24:56;;;;;;;1.15;0.60;;;;;;;;;;4991169;28;20026;-59
2021/10/01 11:27:21;;;;;;;1.73;0.70;;;;;;;;;;4990883;28;20022;-59
2021/10/01 11:29:46;;;;;;;1.38;0.80;;;;;;;;;;4995228;28;20512;-59
2021/10/01 11:32:19;;;;;;;1.00;0.70;;;;;;;;;;4996633;28;20125;-60
2021/10/01 11:34:47;;;;;;;2.50;0.60;;;;;;;;;;4991844;28;20031;-59
2021/10/01 11:37:32;;;;;;;1.70;0.75;;;;;;;;;;4990680;28;20023;-60
2021/10/01 11:39:59;;;;;;;2.53;0.90;;;;;;;;;;5003819;28;20059;-60
2021/10/01 11:42:27;;;;;;;1.15;0.60;;;;;;;;;;5000031;28;20041;-59
2021/10/01 11:44:52;;;;;;;2.15;0.90;;;;;;;;;;5003615;28;20431;-60
2021/10/01 11:47:17;;;;;;;9.40;1.08;;;;;;;;;;4997084;28;20042;-58
2021/10/01 11:49:50;;;;;;;1.03;0.60;;;;;;;;;;4991389;28;20109;-59
2021/10/01 11:52:17;;;;;;;3.72;0.80;;;;;;;;;;4996602;28;20273;-59
2021/10/01 11:54:49;;;;;;;1.73;0.80;;;;;;;;;;4998579;28;20137;-60
2021/10/01 11:57:15;;;;;;;1.30;0.60;;;;;;;;;;4990144;28;20018;-59
2021/10/01 11:59:54;;;;;;;1.47;0.60;;;;;;;;;;5002795;28;20540;-57
2021/10/01 12:02:29;;;;;;;4.28;0.80;;;;;;;;;;4993380;28;20293;-60
2021/10/01 12:04:55;;;;;;;1.55;0.60;;;;;;;;;;4995694;28;20041;-59
2021/10/01 12:07:20;;;;;;;1.10;0.73;;;;;;;;;;4999440;28;20023;-58
2021/10/01 12:10:05;;;;;;;3.22;0.90;;;;;;;;;;4995208;28;20110;-58
2021/10/01 12:12:30;;;;;;;1.67;0.77;;;;;;;;;;5001575;28;20034;-59
2021/10/01 12:14:55;;;;;;;1.77;0.60;;;;;;;;;;4999760;28;20030;-58
2021/10/01 12:17:20;;;;;;;0.77;0.70;;;;;;;;;;5004100;28;20057;-60
2021/10/01 12:19:46;;;;;;;1.27;0.80;;;;;;;;;;5009205;28;20590;-59
2021/10/01 12:22:13;;;;;;;1.87;0.60;;;;;;;;;;4993974;28;20289;-58
2021/10/01 12:24:44;;;;;;;2.88;0.88;;;;;;;;;;4991820;28;20336;-56
2021/10/01 12:27:09;;;;;;;2.22;0.57;;;;;;;;;;4999210;28;20037;-57
2021/10/01 12:29:41;;;;;;;1.02;0.55;;;;;;;;;;4994322;28;20541;-57
2021/10/01 12:32:06;;;;;;;1.00;0.70;;;;;;;;;;4999778;28;20029;-56
2021/10/01 12:34:33;;;;;;;2.78;0.85;;;;;;;;;;5000529;28;20026;-56
2021/10/01 12:37:02;;;;;;;1.30;0.68;;;;;;;;;;5000632;28;20033;-56
2021/10/01 12:39:28;;;;;;;1.27;0.88;;;;;;;;;;5000233;28;20064;-55
2021/10/01 12:41:54;;;;;;;1.40;0.88;;;;;;;;;;5002526;28;20029;-58
2021/10/01 12:44:19;;;;;;;1.67;0.80;;;;;;;;;;5006863;28;20407;-58
2021/10/01 12:46:49;;;;;;;2.03;0.60;;;;;;;;;;5001109;28;20025;-55
2021/10/01 12:49:19;;;;;;;1.45;0.80;;;;;;;;;;4996682;28;20381;-55
2021/10/01 12:52:04;;;;;;;1.83;0.90;;;;;;;;;;5000322;28;20039;-56
2021/10/01 12:54:35;;;;;;;1.98;0.60;;;;;;;;;;4997865;28;20132;-58
2021/10/01 12:57:08;;;;;;;3.42;0.90;;;;;;;;;;4998165;28;20030;-55
2021/10/01 12:59:54;;;;;;;1.35;0.80;;;;;;;;;;4998075;28;20045;-56
2021/10/01 13:02:21;;;;;;;2.83;0.98;;;;;;;;;;4999807;28;20030;-56
2021/10/01 13:04:46;;;;;;;1.05;0.60;;;;;;;;;;5003123;28;20045;-56
2021/10/01 13:07:20;;;;;;;7.57;0.93;;;;;;;;;;4994570;28;20015;-56
2021/10/01 13:09:46;;;;;;;2.38;0.63;;;;;;;;;;5000835;28;20030;-56
2021/10/01 13:12:24;;;;;;;1.55;0.63;;;;;;;;;;5003618;28;20059;-56
2021/10/01 13:15:05;;;;;;;1.80;0.70;;;;;;;;;;5006277;28;20014;-57
2021/10/01 13:17:31;;;;;;;1.67;0.80;;;;;;;;;;4996215;28;20041;-56
2021/10/01 13:19:59;;;;;;;1.23;0.70;;;;;;;;;;4999102;28;20026;-57
2021/10/01 13:22:24;;;;;;;3.30;0.85;;;;;;;;;;4992708;28;20320;-58
2021/10/01 13:24:55;;;;;;;2.03;0.90;;;;;;;;;;4993256;28;20022;-56
2021/10/01 13:27:20;;;;;;;1.52;0.73;;;;;;;;;;5005292;28;20288;-56
2021/10/01 13:29:46;;;;;;;1.03;0.77;;;;;;;;;;4998587;28;20454;-56
2021/10/01 13:32:12;;;;;;;2.22;0.80;;;;;;;;;;5000118;28;20391;-58
2021/10/01 13:34:37;;;;;;;1.02;0.73;;;;;;;;;;4992971;28;20096;-57
2021/10/01 13:37:02;;;;;;;1.60;0.80;;;;;;;;;;4998260;28;20078;-58
2021/10/01 13:39:28;;;;;;;1.25;0.70;;;;;;;;;;4992795;28;20752;-58
2021/10/01 13:41:53;;;;;;;1.60;0.80;;;;;;;;;;5005511;28;20058;-57
2021/10/01 13:44:19;;;;;;;2.07;0.70;;;;;;;;;;5002595;28;20748;-58
2021/10/01 13:46:44;;;;;;;0.88;0.50;;;;;;;;;;4998556;28;20321;-56
2021/10/01 13:49:09;;;;;;;0.90;0.60;;;;;;;;;;5002536;28;20076;-58
2021/10/01 13:51:35;;;;;;;3.45;1.10;;;;;;;;;;5001643;28;20265;-58
2021/10/01 13:54:00;;;;;;;2.57;0.83;;;;;;;;;;4992429;28;20455;-55
2021/10/01 13:56:25;;;;;;;1.53;0.67;;;;;;;;;;4996522;28;20269;-57
2021/10/01 13:58:50;;;;;;;2.67;0.80;;;;;;;;;;4992131;28;20282;-57
2021/10/01 14:01:16;;;;;;;2.28;0.82;;;;;;;;;;4994872;28;20033;-59
2021/10/01 14:03:41;;;;;;;2.67;0.77;;;;;;;;;;4996900;28;20092;-59
2021/10/01 14:06:06;;;;;;;2.30;0.80;;;;;;;;;;4992108;28;20026;-57
2021/10/01 14:08:31;;;;;;;1.87;0.70;;;;;;;;;;5001070;28;20469;-57
2021/10/01 14:10:57;;;;;;;0.95;0.70;;;;;;;;;;4997768;28;20281;-57
2021/10/01 14:13:22;;;;;;;1.17;0.73;;;;;;;;;;5008383;28;20541;-58
2021/10/01 14:15:48;;;;;;;1.43;0.60;;;;;;;;;;5011120;28;20014;-57
2021/10/01 14:18:14;;;;;;;2.88;0.75;;;;;;;;;;4992626;28;20265;-59
2021/10/01 14:20:39;;;;;;;1.42;0.73;;;;;;;;;;5001212;28;20044;-59
2021/10/01 14:23:06;;;;;;;1.20;0.68;;;;;;;;;;4996710;28;20386;-58
2021/10/01 14:25:31;;;;;;;0.70;0.68;;;;;;;;;;4995238;28;20637;-59
2021/10/01 14:27:56;;;;;;;3.70;0.67;;;;;;;;;;5006919;28;20125;-58
2021/10/01 14:30:22;;;;;;;2.33;1.05;;;;;;;;;;5007087;28;20022;-57
2021/10/01 14:32:48;;;;;;;1.55;0.73;;;;;;;;;;5000057;28;20064;-59
2021/10/01 14:35:13;;;;;;;1.33;0.68;;;;;;;;;;4991877;28;20057;-58
2021/10/01 14:37:38;;;;;;;1.52;0.70;;;;;;;;;;4997564;28;20033;-57
2021/10/01 14:40:05;;;;;;;1.20;0.60;;;;;;;;;;4993410;28;20022;-58
2021/10/01 14:42:30;;;;;;;1.80;0.80;;;;;;;;;;4996618;28;20034;-58
2021/10/01 14:44:55;;;;;;;1.30;0.63;;;;;;;;;;4991834;28;20021;-59
2021/10/01 14:47:20;;;;;;;0.70;0.60;;;;;;;;;;4991896;28;20578;-58
2021/10/01 14:49:46;;;;;;;2.30;0.80;;;;;;;;;;4991849;28;20029;-59
2021/10/01 14:52:11;;;;;;;0.98;0.60;;;;;;;;;;5004301;28;20049;-58
2021/10/01 14:54:37;;;;;;;3.45;0.70;;;;;;;;;;4991420;28;20023;-57
2021/10/01 14:57:02;;;;;;;1.42;0.70;;;;;;;;;;4991616;28;20025;-58
2021/10/01 14:59:27;;;;;;;0.95;0.60;;;;;;;;;;4991082;28;20042;-57
2021/10/01 15:01:52;;;;;;;1.47;0.80;;;;;;;;;;5007542;28;20148;-58
2021/10/01 15:04:18;;;;;;;2.33;0.87;;;;;;;;;;4993325;28;20042;-59
2021/10/01 15:06:43;;;;;;;2.58;0.80;;;;;;;;;;4994866;28;20269;-57
2021/10/01 15:09:08;;;;;;;2.50;1.00;;;;;;;;;;5010518;28;20018;-59
2021/10/01 15:11:34;;;;;;;2.13;0.97;;;;;;;;;;5001137;28;20054;-58
2021/10/01 15:13:59;;;;;;;1.25;0.77;;;;;;;;;;4999093;28;20812;-57
2021/10/01 15:16:25;;;;;;;2.00;1.03;;;;;;;;;;4990276;28;20026;-58
2021/10/01 15:18:50;;;;;;;1.00;0.80;;;;;;;;;;4991416;28;20346;-58
2021/10/01 15:21:15;;;;;;;2.57;0.87;;;;;;;;;;4991317;28;20329;-58
2021/10/01 15:23:40;;;;;;;1.15;0.85;;;;;;;;;;4996896;28;20371;-58
2021/10/01 15:26:05;;;;;;;4.13;0.80;;;;;;;;;;4991152;28;20101;-57
2021/10/01 15:28:31;;;;;;;2.28;0.90;;;;;;;;;;4996146;28;20092;-58
2021/10/01 15:30:56;;;;;;;1.25;0.88;;;;;;;;;;4996413;28;20014;-58
2021/10/01 15:33:22;;;;;;;2.88;0.80;;;;;;;;;;5009367;28;20057;-58
2021/10/01 15:35:47;;;;;;;2.90;1.05;;;;;;;;;;4991530;28;20433;-57
2021/10/01 15:38:13;;;;;;;2.95;0.80;;;;;;;;;;4990883;28;20140;-58
2021/10/01 15:40:39;;;;;;;1.10;0.88;;;;;;;;;;4992007;28;20018;-57
2021/10/01 15:43:05;;;;;;;2.03;0.93;;;;;;;;;;4990445;28;20069;-58
2021/10/01 15:45:30;;;;;;;2.92;1.10;;;;;;;;;;4993150;28;20050;-57
2021/10/01 15:47:56;;;;;;;4.53;1.30;;;;;;;;;;4990718;28;20030;-56
2021/10/01 15:50:21;;;;;;;2.40;1.20;;;;;;;;;;4990229;28;20396;-55
2021/10/01 15:52:47;;;;;;;2.27;1.00;;;;;;;;;;4990367;28;20285;-58
2021/10/01 15:55:13;;;;;;;1.45;0.93;;;;;;;;;;4993411;28;20299;-54
2021/10/01 15:57:38;;;;;;;1.83;1.00;;;;;;;;;;4990057;28;20023;-57
2021/10/01 16:00:07;;;;;;;5.23;1.20;;;;;;;;;;4990328;28;20124;-59
2021/10/01 16:02:33;;;;;;;2.85;1.33;;;;;;;;;;4996011;28;20308;-59
2021/10/01 16:04:58;;;;;;;2.25;1.38;;;;;;;;;;4989968;28;20035;-61
2021/10/01 16:07:24;;;;;;;2.40;1.40;;;;;;;;;;4997284;28;20047;-60
2021/10/01 16:09:51;;;;;;;2.95;1.55;;;;;;;;;;4997360;28;20026;-58
2021/10/01 16:12:16;;;;;;;5.55;1.45;;;;;;;;;;4999579;28;20022;-59